createdAt,value
2019-03-08T00:00:04.154Z,990.46
2019-03-08T00:01:04.159Z,990.52
2019-03-08T00:02:04.180Z,990.49
2019-03-08T00:03:04.208Z,990.45
2019-03-08T00:04:04.232Z,990.56
2019-03-08T00:05:04.267Z,990.45
2019-03-08T00:06:04.286Z,990.58
2019-03-08T00:07:04.302Z,990.58
2019-03-08T00:08:04.330Z,990.52
2019-03-08T00:09:04.358Z,990.52
2019-03-08T00:10:04.376Z,990.56
2019-03-08T00:11:04.420Z,990.65
2019-03-08T00:12:04.425Z,990.92
2019-03-08T00:13:05.411Z,990.63
2019-03-08T00:14:04.470Z,990.68
2019-03-08T00:15:04.497Z,990.65
2019-03-08T00:16:04.520Z,990.78
2019-03-08T00:17:04.560Z,990.68
2019-03-08T00:18:04.587Z,990.54
2019-03-08T00:19:04.595Z,990.70
2019-03-08T00:20:04.619Z,990.68
2019-03-08T00:21:04.647Z,990.83
2019-03-08T00:22:04.672Z,990.70
2019-03-08T00:23:04.696Z,990.79
2019-03-08T00:24:04.712Z,990.74
2019-03-08T00:25:04.735Z,990.79
2019-03-08T00:26:04.762Z,990.73
2019-03-08T00:27:04.788Z,990.77
2019-03-08T00:28:04.828Z,990.74
2019-03-08T00:29:04.834Z,990.83
2019-03-08T00:30:04.856Z,990.76
2019-03-08T00:31:04.881Z,990.88
2019-03-08T00:32:04.907Z,990.72
2019-03-08T00:33:04.931Z,990.88
2019-03-08T00:34:04.952Z,990.84
2019-03-08T00:35:04.977Z,990.80
2019-03-08T00:36:05.007Z,990.95
2019-03-08T00:37:05.031Z,990.88
2019-03-08T00:38:05.055Z,990.99
2019-03-08T00:39:05.074Z,991.00
2019-03-08T00:40:05.105Z,991.03
2019-03-08T00:41:05.125Z,991.02
2019-03-08T00:42:05.153Z,991.06
2019-03-08T00:43:05.170Z,991.11
2019-03-08T00:44:05.197Z,991.06
2019-03-08T00:45:05.219Z,991.13
2019-03-08T00:46:05.241Z,991.20
2019-03-08T00:47:05.271Z,991.21
2019-03-08T00:48:05.291Z,991.15
2019-03-08T00:49:05.318Z,991.12
2019-03-08T00:50:05.340Z,991.19
2019-03-08T00:51:05.364Z,991.21
2019-03-08T00:52:05.389Z,991.21
2019-03-08T00:53:05.415Z,991.26
2019-03-08T00:54:05.445Z,991.26
2019-03-08T00:55:05.478Z,991.07
2019-03-08T00:56:05.483Z,991.39
2019-03-08T00:57:05.506Z,991.46
2019-03-08T00:58:05.539Z,991.39
2019-03-08T00:59:05.557Z,991.47
2019-03-08T01:00:05.581Z,991.51
2019-03-08T01:01:05.601Z,991.37
2019-03-08T01:02:05.629Z,991.49
2019-03-08T01:03:05.681Z,991.50
2019-03-08T01:04:05.681Z,991.48
2019-03-08T01:05:05.698Z,991.38
2019-03-08T01:06:05.722Z,991.46
2019-03-08T01:07:05.752Z,991.53
2019-03-08T01:08:05.779Z,991.56
2019-03-08T01:09:05.801Z,991.43
2019-03-08T01:10:05.821Z,991.49
2019-03-08T01:11:05.861Z,991.52
2019-03-08T01:12:05.868Z,991.47
2019-03-08T01:13:05.889Z,991.40
2019-03-08T01:14:05.920Z,991.54
2019-03-08T01:15:05.944Z,991.39
2019-03-08T01:16:05.962Z,991.55
2019-03-08T01:17:05.986Z,991.40
2019-03-08T01:18:06.010Z,991.60
2019-03-08T01:19:06.034Z,991.54
2019-03-08T01:20:06.058Z,991.43
2019-03-08T01:21:06.089Z,991.50
2019-03-08T01:22:06.106Z,991.53
2019-03-08T01:23:06.130Z,991.43
2019-03-08T01:24:06.160Z,991.59
2019-03-08T01:25:06.180Z,991.58
2019-03-08T01:26:06.202Z,991.61
2019-03-08T01:27:06.241Z,991.66
2019-03-08T01:28:06.261Z,991.67
2019-03-08T01:29:06.283Z,991.75
2019-03-08T01:30:06.300Z,991.74
2019-03-08T01:31:06.323Z,991.78
2019-03-08T01:32:06.346Z,991.91
2019-03-08T01:33:06.371Z,991.77
2019-03-08T01:34:06.393Z,991.76
2019-03-08T01:35:06.421Z,991.78
2019-03-08T01:36:06.442Z,991.69
2019-03-08T01:37:06.466Z,991.73
2019-03-08T01:38:06.489Z,991.82
2019-03-08T01:39:06.564Z,991.77
2019-03-08T01:40:06.538Z,991.85
2019-03-08T01:41:06.562Z,991.91
2019-03-08T01:42:06.587Z,991.95
2019-03-08T01:43:06.620Z,991.95
2019-03-08T01:44:06.656Z,991.98
2019-03-08T01:45:06.660Z,992.02
2019-03-08T01:46:06.683Z,991.98
2019-03-08T01:47:06.745Z,992.18
2019-03-08T01:48:06.729Z,992.05
2019-03-08T01:49:06.753Z,992.08
2019-03-08T01:50:06.780Z,992.15
2019-03-08T01:51:06.803Z,992.20
2019-03-08T01:52:06.828Z,992.25
2019-03-08T01:53:06.859Z,992.39
2019-03-08T01:54:06.875Z,992.42
2019-03-08T01:55:06.907Z,992.44
2019-03-08T01:56:06.925Z,992.52
2019-03-08T01:57:06.946Z,992.49
2019-03-08T01:58:06.972Z,992.57
2019-03-08T01:59:06.998Z,992.72
2019-03-08T02:00:07.031Z,992.81
2019-03-08T02:01:07.041Z,992.89
2019-03-08T02:02:07.069Z,992.90
2019-03-08T02:03:07.089Z,992.91
2019-03-08T02:04:07.119Z,992.98
2019-03-08T02:05:07.138Z,992.86
2019-03-08T02:06:07.180Z,992.92
2019-03-08T02:07:07.189Z,992.87
2019-03-08T02:08:07.213Z,993.00
2019-03-08T02:09:07.257Z,992.88
2019-03-08T02:10:07.258Z,992.88
2019-03-08T02:11:07.282Z,992.92
2019-03-08T02:12:07.309Z,992.91
2019-03-08T02:13:07.337Z,993.00
2019-03-08T02:14:07.362Z,992.92
2019-03-08T02:15:07.380Z,992.92
2019-03-08T02:16:07.403Z,992.90
2019-03-08T02:17:07.425Z,992.93
2019-03-08T02:18:07.452Z,992.95
2019-03-08T02:19:07.478Z,992.94
2019-03-08T02:20:07.497Z,992.91
2019-03-08T02:21:07.538Z,993.01
2019-03-08T02:22:07.544Z,993.03
2019-03-08T02:23:07.571Z,993.05
2019-03-08T02:24:07.594Z,992.90
2019-03-08T02:25:07.615Z,992.95
2019-03-08T02:26:07.645Z,993.04
2019-03-08T02:27:07.664Z,993.05
2019-03-08T02:28:08.615Z,992.98
2019-03-08T02:29:07.720Z,992.96
2019-03-08T02:30:07.739Z,993.04
2019-03-08T02:31:07.768Z,992.97
2019-03-08T02:32:07.786Z,993.03
2019-03-08T02:33:07.806Z,993.05
2019-03-08T02:34:07.834Z,992.94
2019-03-08T02:35:07.857Z,993.01
2019-03-08T02:36:07.890Z,992.97
2019-03-08T02:37:07.901Z,993.04
2019-03-08T02:38:07.929Z,993.01
2019-03-08T02:39:07.953Z,993.00
2019-03-08T02:40:07.981Z,993.05
2019-03-08T02:41:08.000Z,993.01
2019-03-08T02:42:08.031Z,993.09
2019-03-08T02:43:08.048Z,993.09
2019-03-08T02:44:08.081Z,993.08
2019-03-08T02:45:08.104Z,993.03
2019-03-08T02:46:08.117Z,993.05
2019-03-08T02:47:08.143Z,993.07
2019-03-08T02:48:08.164Z,992.99
2019-03-08T02:49:08.191Z,992.98
2019-03-08T02:50:08.221Z,993.09
2019-03-08T02:51:08.238Z,992.98
2019-03-08T02:52:08.262Z,993.05
2019-03-08T02:53:08.286Z,993.03
2019-03-08T02:54:08.316Z,993.03
2019-03-08T02:55:08.334Z,993.03
2019-03-08T02:56:08.357Z,993.07
2019-03-08T02:57:08.386Z,993.12
2019-03-08T02:58:08.405Z,993.11
2019-03-08T02:59:08.429Z,993.15
2019-03-08T03:00:08.451Z,993.13
2019-03-08T03:01:08.476Z,993.15
2019-03-08T03:02:08.500Z,993.21
2019-03-08T03:03:08.525Z,993.19
2019-03-08T03:04:08.552Z,993.14
2019-03-08T03:05:08.569Z,993.12
2019-03-08T03:06:08.603Z,993.20
2019-03-08T03:07:08.619Z,993.14
2019-03-08T03:08:08.645Z,993.26
2019-03-08T03:09:08.666Z,993.20
2019-03-08T03:10:08.693Z,993.27
2019-03-08T03:11:08.765Z,993.30
2019-03-08T03:12:08.741Z,993.21
2019-03-08T03:13:08.759Z,993.27
2019-03-08T03:14:08.786Z,993.27
2019-03-08T03:15:08.810Z,993.20
2019-03-08T03:16:08.843Z,993.32
2019-03-08T03:17:08.862Z,993.40
2019-03-08T03:18:08.881Z,993.45
2019-03-08T03:19:08.910Z,993.41
2019-03-08T03:20:08.930Z,993.43
2019-03-08T03:21:08.959Z,993.47
2019-03-08T03:22:08.981Z,993.51
2019-03-08T03:23:08.998Z,993.56
2019-03-08T03:24:09.027Z,993.40
2019-03-08T03:25:09.049Z,993.52
2019-03-08T03:26:09.079Z,993.54
2019-03-08T03:27:09.103Z,993.65
2019-03-08T03:28:09.119Z,993.74
2019-03-08T03:29:09.139Z,993.74
2019-03-08T03:30:09.169Z,993.73
2019-03-08T03:31:09.191Z,993.81
2019-03-08T03:32:09.231Z,993.81
2019-03-08T03:33:09.276Z,993.77
2019-03-08T03:34:09.263Z,993.78
2019-03-08T03:35:09.285Z,993.85
2019-03-08T03:36:09.310Z,993.92
2019-03-08T03:37:09.334Z,993.90
2019-03-08T03:38:09.357Z,993.86
2019-03-08T03:39:09.382Z,993.89
2019-03-08T03:40:09.411Z,993.94
2019-03-08T03:41:09.432Z,993.91
2019-03-08T03:42:09.456Z,993.95
2019-03-08T03:43:09.479Z,993.95
2019-03-08T03:44:09.499Z,993.99
2019-03-08T03:45:09.521Z,994.00
2019-03-08T03:46:09.550Z,994.07
2019-03-08T03:47:09.579Z,994.05
2019-03-08T03:48:09.599Z,994.15
2019-03-08T03:49:09.618Z,994.06
2019-03-08T03:50:09.644Z,994.12
2019-03-08T03:51:09.668Z,994.09
2019-03-08T03:52:09.692Z,994.18
2019-03-08T03:53:09.713Z,994.21
2019-03-08T03:54:09.746Z,994.27
2019-03-08T03:55:09.765Z,994.31
2019-03-08T03:56:09.788Z,994.31
2019-03-08T03:57:09.809Z,994.39
2019-03-08T03:58:09.833Z,994.34
2019-03-08T03:59:09.860Z,994.34
2019-03-08T04:00:11.759Z,994.37
2019-03-08T04:01:09.908Z,994.35
2019-03-08T04:02:09.931Z,994.49
2019-03-08T04:03:09.955Z,994.49
2019-03-08T04:04:09.978Z,994.59
2019-03-08T04:05:10.009Z,994.53
2019-03-08T04:06:10.033Z,994.56
2019-03-08T04:07:10.050Z,994.64
2019-03-08T04:08:10.073Z,994.72
2019-03-08T04:09:10.095Z,994.64
2019-03-08T04:10:10.124Z,994.63
2019-03-08T04:11:10.150Z,994.60
2019-03-08T04:12:10.172Z,994.63
2019-03-08T04:13:10.196Z,994.78
2019-03-08T04:14:10.216Z,994.77
2019-03-08T04:15:10.240Z,994.80
2019-03-08T04:16:10.270Z,994.81
2019-03-08T04:17:10.287Z,994.80
2019-03-08T04:18:10.312Z,994.82
2019-03-08T04:19:10.335Z,994.83
2019-03-08T04:20:10.360Z,994.87
2019-03-08T04:21:10.385Z,994.91
2019-03-08T04:22:10.407Z,994.96
2019-03-08T04:23:10.432Z,995.02
2019-03-08T04:24:10.457Z,994.96
2019-03-08T04:25:10.481Z,994.92
2019-03-08T04:26:10.507Z,995.01
2019-03-08T04:27:10.530Z,995.00
2019-03-08T04:28:10.552Z,995.11
2019-03-08T04:29:10.577Z,995.00
2019-03-08T04:30:10.599Z,994.99
2019-03-08T04:31:10.628Z,994.97
2019-03-08T04:32:10.655Z,995.12
2019-03-08T04:33:10.677Z,994.95
2019-03-08T04:34:10.693Z,995.13
2019-03-08T04:35:10.721Z,995.09
2019-03-08T04:36:10.745Z,995.11
2019-03-08T04:37:10.769Z,995.13
2019-03-08T04:38:10.810Z,995.15
2019-03-08T04:39:10.816Z,995.14
2019-03-08T04:40:10.845Z,995.10
2019-03-08T04:41:10.867Z,995.19
2019-03-08T04:42:10.888Z,995.26
2019-03-08T04:43:10.912Z,995.25
2019-03-08T04:44:10.944Z,995.24
2019-03-08T04:45:10.961Z,995.30
2019-03-08T04:46:10.990Z,995.27
2019-03-08T04:47:11.008Z,995.33
2019-03-08T04:48:11.037Z,995.37
2019-03-08T04:49:11.052Z,995.38
2019-03-08T04:50:11.077Z,995.40
2019-03-08T04:51:11.102Z,995.42
2019-03-08T04:52:11.136Z,995.41
2019-03-08T04:53:11.162Z,995.50
2019-03-08T04:54:11.176Z,995.54
2019-03-08T04:55:11.204Z,995.57
2019-03-08T04:56:11.224Z,995.49
2019-03-08T04:57:11.246Z,995.57
2019-03-08T04:58:11.281Z,995.62
2019-03-08T04:59:11.296Z,995.50
2019-03-08T05:00:11.324Z,995.64
2019-03-08T05:01:11.346Z,995.68
2019-03-08T05:02:11.373Z,995.61
2019-03-08T05:03:11.393Z,995.65
2019-03-08T05:04:11.436Z,995.85
2019-03-08T05:05:11.440Z,995.64
2019-03-08T05:06:11.463Z,995.64
2019-03-08T05:07:11.487Z,995.78
2019-03-08T05:08:11.513Z,995.81
2019-03-08T05:09:11.539Z,995.79
2019-03-08T05:10:11.615Z,995.82
2019-03-08T05:11:11.585Z,995.76
2019-03-08T05:12:11.616Z,995.83
2019-03-08T05:13:11.637Z,995.79
2019-03-08T05:14:11.657Z,995.93
2019-03-08T05:15:11.688Z,995.85
2019-03-08T05:16:11.705Z,995.89
2019-03-08T05:17:11.728Z,995.88
2019-03-08T05:18:11.758Z,996.00
2019-03-08T05:19:11.775Z,996.00
2019-03-08T05:20:11.810Z,995.88
2019-03-08T05:21:11.824Z,995.99
2019-03-08T05:22:11.846Z,996.02
2019-03-08T05:23:11.870Z,996.01
2019-03-08T05:24:11.895Z,996.04
2019-03-08T05:25:11.921Z,996.08
2019-03-08T05:26:11.950Z,996.11
2019-03-08T05:27:11.965Z,996.12
2019-03-08T05:28:12.001Z,996.09
2019-03-08T05:29:12.016Z,996.10
2019-03-08T05:30:12.040Z,996.09
2019-03-08T05:31:12.065Z,996.17
2019-03-08T05:32:12.092Z,996.12
2019-03-08T05:33:12.110Z,996.11
2019-03-08T05:34:12.138Z,996.11
2019-03-08T05:35:12.162Z,996.20
2019-03-08T05:36:12.184Z,996.19
2019-03-08T05:37:12.210Z,996.16
2019-03-08T05:38:12.228Z,996.25
2019-03-08T05:39:12.253Z,996.20
2019-03-08T05:40:12.278Z,996.20
2019-03-08T05:41:12.300Z,996.28
2019-03-08T05:42:12.327Z,996.28
2019-03-08T05:43:12.348Z,996.32
2019-03-08T05:44:12.378Z,996.34
2019-03-08T05:45:12.408Z,996.38
2019-03-08T05:46:12.425Z,996.37
2019-03-08T05:47:12.448Z,996.50
2019-03-08T05:48:12.469Z,996.46
2019-03-08T05:49:12.502Z,996.61
2019-03-08T05:50:12.524Z,996.51
2019-03-08T05:51:12.545Z,996.55
2019-03-08T05:52:12.565Z,996.65
2019-03-08T05:53:12.587Z,996.60
2019-03-08T05:54:12.615Z,996.71
2019-03-08T05:55:12.636Z,996.78
2019-03-08T05:56:12.663Z,996.76
2019-03-08T05:57:12.686Z,996.76
2019-03-08T05:58:12.708Z,996.83
2019-03-08T05:59:12.738Z,996.82
2019-03-08T06:00:12.759Z,996.91
2019-03-08T06:01:12.779Z,997.05
2019-03-08T06:02:12.814Z,996.91
2019-03-08T06:03:12.837Z,997.07
2019-03-08T06:04:12.853Z,997.01
2019-03-08T06:05:12.878Z,997.03
2019-03-08T06:06:12.900Z,997.10
2019-03-08T06:07:12.942Z,997.11
2019-03-08T06:08:12.951Z,997.09
2019-03-08T06:09:12.975Z,997.17
2019-03-08T06:10:12.995Z,997.17
2019-03-08T06:11:13.029Z,997.17
2019-03-08T06:12:13.043Z,997.23
2019-03-08T06:13:13.070Z,997.28
2019-03-08T06:14:13.100Z,997.31
2019-03-08T06:15:13.118Z,997.31
2019-03-08T06:16:13.141Z,997.31
2019-03-08T06:17:13.163Z,997.44
2019-03-08T06:18:13.189Z,997.45
2019-03-08T06:19:13.212Z,997.43
2019-03-08T06:20:13.236Z,997.43
2019-03-08T06:21:13.259Z,997.48
2019-03-08T06:22:13.285Z,997.52
2019-03-08T06:23:13.306Z,997.54
2019-03-08T06:24:13.334Z,997.53
2019-03-08T06:25:13.360Z,997.63
2019-03-08T06:26:13.384Z,997.72
2019-03-08T06:27:13.406Z,997.71
2019-03-08T06:28:13.430Z,997.81
2019-03-08T06:29:13.452Z,997.76
2019-03-08T06:30:13.478Z,997.86
2019-03-08T06:31:13.499Z,997.86
2019-03-08T06:32:13.523Z,997.87
2019-03-08T06:33:13.546Z,997.95
2019-03-08T06:34:13.573Z,997.94
2019-03-08T06:35:13.594Z,997.95
2019-03-08T06:36:13.620Z,998.07
2019-03-08T06:37:13.718Z,998.09
2019-03-08T06:38:13.682Z,998.08
2019-03-08T06:39:13.700Z,998.16
2019-03-08T06:40:13.716Z,998.20
2019-03-08T06:41:13.742Z,998.25
2019-03-08T06:42:13.772Z,998.22
2019-03-08T06:43:13.804Z,998.32
2019-03-08T06:44:13.819Z,998.30
2019-03-08T06:45:13.835Z,998.31
2019-03-08T06:46:13.857Z,998.29
2019-03-08T06:47:13.881Z,998.37
2019-03-08T06:48:13.928Z,998.42
2019-03-08T06:49:13.929Z,998.43
2019-03-08T06:50:13.952Z,998.42
2019-03-08T06:51:13.977Z,998.54
2019-03-08T06:52:14.008Z,998.54
2019-03-08T06:53:14.026Z,998.61
2019-03-08T06:54:14.049Z,998.60
2019-03-08T06:55:14.076Z,998.69
2019-03-08T06:56:14.100Z,998.71
2019-03-08T06:57:14.127Z,998.79
2019-03-08T06:58:14.151Z,998.78
2019-03-08T06:59:14.172Z,998.84
2019-03-08T07:00:14.196Z,998.86
2019-03-08T07:01:14.225Z,998.84
2019-03-08T07:02:14.250Z,998.94
2019-03-08T07:03:14.268Z,999.00
2019-03-08T07:04:14.298Z,998.95
2019-03-08T07:05:14.316Z,999.00
2019-03-08T07:06:14.337Z,999.05
2019-03-08T07:07:14.365Z,999.07
2019-03-08T07:08:14.395Z,999.07
2019-03-08T07:09:14.411Z,999.07
2019-03-08T07:10:14.439Z,999.11
2019-03-08T07:11:14.463Z,999.11
2019-03-08T07:12:14.524Z,999.19
2019-03-08T07:13:14.515Z,999.22
2019-03-08T07:14:14.535Z,999.30
2019-03-08T07:15:14.558Z,999.25
2019-03-08T07:16:14.946Z,999.33
2019-03-08T07:17:14.604Z,999.33
2019-03-08T07:18:14.625Z,999.39
2019-03-08T07:19:14.650Z,999.38
2019-03-08T07:20:14.777Z,999.44
2019-03-08T07:21:14.699Z,999.45
2019-03-08T07:22:14.724Z,999.50
2019-03-08T07:23:14.748Z,999.54
2019-03-08T07:24:14.772Z,999.51
2019-03-08T07:25:14.794Z,999.52
2019-03-08T07:26:14.820Z,999.64
2019-03-08T07:27:14.852Z,999.68
2019-03-08T07:28:14.871Z,999.75
2019-03-08T07:29:14.890Z,999.79
2019-03-08T07:30:14.917Z,999.79
2019-03-08T07:31:14.942Z,999.83
2019-03-08T07:32:14.969Z,999.92
2019-03-08T07:33:14.988Z,999.96
2019-03-08T07:34:15.013Z,999.93
2019-03-08T07:35:15.035Z,999.97
2019-03-08T07:36:15.063Z,999.99
2019-03-08T07:37:15.088Z,1000.03
2019-03-08T07:38:15.108Z,1000.06
2019-03-08T07:39:15.138Z,1000.12
2019-03-08T07:40:15.851Z,1000.16
2019-03-08T07:41:15.188Z,1000.26
2019-03-08T07:42:15.206Z,1000.31
2019-03-08T07:43:15.230Z,1000.32
2019-03-08T07:44:15.252Z,1000.31
2019-03-08T07:45:15.311Z,1000.40
2019-03-08T07:46:15.303Z,1000.49
2019-03-08T07:47:15.327Z,1000.41
2019-03-08T07:48:15.348Z,1000.51
2019-03-08T07:49:15.375Z,1000.48
2019-03-08T07:50:15.403Z,1000.49
2019-03-08T07:51:15.424Z,1000.50
2019-03-08T07:52:15.448Z,1000.59
2019-03-08T07:53:15.472Z,1000.47
2019-03-08T07:54:15.492Z,1000.50
2019-03-08T07:55:15.520Z,1000.62
2019-03-08T07:56:15.549Z,1000.57
2019-03-08T07:57:15.566Z,1000.64
2019-03-08T07:58:15.592Z,1000.73
2019-03-08T07:59:15.624Z,1000.72
2019-03-08T08:00:15.640Z,1000.79
2019-03-08T08:01:15.666Z,1000.77
2019-03-08T08:02:15.689Z,1000.73
2019-03-08T08:03:16.320Z,1000.72
2019-03-08T08:04:18.361Z,1000.75
2019-03-08T08:05:19.040Z,1000.86
2019-03-08T08:06:15.787Z,1000.88
2019-03-08T08:07:15.828Z,1000.87
2019-03-08T08:08:15.837Z,1001.00
2019-03-08T08:09:15.859Z,1000.94
2019-03-08T08:10:15.884Z,1001.02
2019-03-08T08:11:15.915Z,1001.14
2019-03-08T08:12:15.942Z,1001.13
2019-03-08T08:13:15.958Z,1001.15
2019-03-08T08:14:15.986Z,1001.09
2019-03-08T08:15:16.011Z,1001.09
2019-03-08T08:16:16.036Z,1001.12
2019-03-08T08:17:16.063Z,1001.14
2019-03-08T08:18:16.085Z,1001.16
2019-03-08T08:19:16.117Z,1001.20
2019-03-08T08:20:16.790Z,1001.20
2019-03-08T08:21:16.157Z,1001.22
2019-03-08T08:22:16.182Z,1001.24
2019-03-08T08:23:16.207Z,1001.23
2019-03-08T08:24:16.238Z,1001.30
2019-03-08T08:25:16.257Z,1001.35
2019-03-08T08:26:16.290Z,1001.49
2019-03-08T08:27:16.306Z,1001.72
2019-03-08T08:28:16.335Z,1001.35
2019-03-08T08:29:16.357Z,1001.39
2019-03-08T08:30:16.385Z,1001.53
2019-03-08T08:31:16.415Z,1002.02
2019-03-08T08:32:16.433Z,1001.94
2019-03-08T08:33:16.792Z,1001.92
2019-03-08T08:34:16.485Z,1002.12
2019-03-08T08:35:16.518Z,1001.58
2019-03-08T08:36:16.534Z,1001.56
2019-03-08T08:37:16.559Z,1001.50
2019-03-08T08:38:16.594Z,1001.55
2019-03-08T08:39:16.619Z,1001.45
2019-03-08T08:40:16.640Z,1001.55
2019-03-08T08:41:16.664Z,1001.62
2019-03-08T08:42:16.691Z,1001.74
2019-03-08T08:43:16.720Z,1001.68
2019-03-08T08:44:16.746Z,1001.62
2019-03-08T08:45:16.772Z,1001.57
2019-03-08T08:46:16.801Z,1001.66
2019-03-08T08:47:16.823Z,1001.69
2019-03-08T08:48:16.849Z,1001.69
2019-03-08T08:49:16.877Z,1001.72
2019-03-08T08:50:16.902Z,1001.85
2019-03-08T08:51:16.939Z,1001.97
2019-03-08T08:52:16.997Z,1001.84
2019-03-08T08:53:16.982Z,1001.87
2019-03-08T08:54:17.008Z,1002.00
2019-03-08T08:55:17.033Z,1002.37
2019-03-08T08:56:17.058Z,1002.20
2019-03-08T08:57:17.087Z,1002.67
2019-03-08T08:58:17.153Z,1002.07
2019-03-08T08:59:17.146Z,1002.39
2019-03-08T09:00:17.164Z,1002.12
2019-03-08T09:01:17.192Z,1002.17
2019-03-08T09:02:17.222Z,1002.11
2019-03-08T09:03:17.245Z,1002.08
2019-03-08T09:04:17.270Z,1002.14
2019-03-08T09:05:17.299Z,1002.11
2019-03-08T09:06:17.323Z,1002.21
2019-03-08T09:07:17.349Z,1002.15
2019-03-08T09:08:17.378Z,1002.14
2019-03-08T09:09:17.404Z,1002.25
2019-03-08T09:10:17.427Z,1002.31
2019-03-08T09:11:17.457Z,1002.31
2019-03-08T09:12:17.490Z,1002.42
2019-03-08T09:13:17.509Z,1002.49
2019-03-08T09:14:17.533Z,1002.99
2019-03-08T09:15:17.559Z,1002.48
2019-03-08T09:16:17.594Z,1002.41
2019-03-08T09:17:17.626Z,1002.47
2019-03-08T09:18:17.640Z,1002.51
2019-03-08T09:19:17.666Z,1002.53
2019-03-08T09:20:17.690Z,1002.56
2019-03-08T09:21:17.718Z,1002.67
2019-03-08T09:22:17.740Z,1002.63
2019-03-08T09:23:17.770Z,1002.65
2019-03-08T09:24:17.793Z,1002.53
2019-03-08T09:25:17.833Z,1002.78
2019-03-08T09:26:17.851Z,1002.69
2019-03-08T09:27:17.891Z,1002.72
2019-03-08T09:28:17.899Z,1002.70
2019-03-08T09:29:17.925Z,1002.79
2019-03-08T09:30:17.950Z,1002.67
2019-03-08T09:31:17.977Z,1002.73
2019-03-08T09:32:18.002Z,1002.71
2019-03-08T09:33:18.030Z,1002.82
2019-03-08T09:34:18.050Z,1003.09
2019-03-08T09:35:18.079Z,1003.02
2019-03-08T09:36:18.104Z,1002.86
2019-03-08T09:37:18.138Z,1003.56
2019-03-08T09:38:18.155Z,1003.51
2019-03-08T09:39:18.181Z,1003.53
2019-03-08T09:40:18.209Z,1003.53
2019-03-08T09:42:00.848Z,1003.57
2019-03-08T09:43:00.870Z,1003.59
2019-03-08T09:44:00.901Z,1003.65
2019-03-08T09:45:00.929Z,1003.68
2019-03-08T09:46:00.959Z,1003.75
2019-03-08T09:47:00.981Z,1003.87
2019-03-08T09:48:01.017Z,1003.48
2019-03-08T09:49:01.035Z,1003.15
2019-03-08T09:50:01.068Z,1003.80
2019-03-08T09:51:01.096Z,1003.25
2019-03-08T09:52:03.746Z,1003.84
2019-03-08T09:53:01.151Z,1003.26
2019-03-08T09:54:01.732Z,1003.07
2019-03-08T09:55:01.216Z,1003.68
2019-03-08T09:56:01.245Z,1003.82
2019-03-08T09:57:01.276Z,1004.06
2019-03-08T09:58:01.297Z,1003.64
2019-03-08T09:59:01.327Z,1003.98
2019-03-08T10:00:01.761Z,1004.01
2019-03-08T10:01:01.393Z,1004.09
2019-03-08T10:02:01.415Z,1003.74
2019-03-08T10:03:01.457Z,1003.22
2019-03-08T10:04:01.476Z,1003.76
2019-03-08T10:05:01.512Z,1003.60
2019-03-08T10:06:01.545Z,1004.02
2019-03-08T10:07:01.572Z,1004.16
2019-03-08T10:08:01.606Z,1004.03
2019-03-08T10:09:01.640Z,1004.09
2019-03-08T10:10:01.668Z,1004.03
2019-03-08T10:11:01.701Z,1004.03
2019-03-08T10:12:01.732Z,1004.01
2019-03-08T10:13:01.763Z,1004.19
2019-03-08T10:14:01.796Z,1004.10
2019-03-08T10:15:01.834Z,1004.16
2019-03-08T10:16:01.862Z,1004.21
2019-03-08T10:17:01.893Z,1004.18
2019-03-08T10:18:01.924Z,1004.08
2019-03-08T10:19:01.964Z,1004.08
2019-03-08T10:20:01.993Z,1004.20
2019-03-08T10:21:02.023Z,1004.26
2019-03-08T10:22:02.066Z,1004.21
2019-03-08T10:23:02.091Z,1004.33
2019-03-08T10:24:02.977Z,1003.52
2019-03-08T10:25:02.158Z,1004.41
2019-03-08T10:26:02.196Z,1004.49
2019-03-08T10:27:02.225Z,1003.81
2019-03-08T10:28:02.267Z,1003.55
2019-03-08T10:29:02.291Z,1003.49
2019-03-08T10:30:02.335Z,1003.59
2019-03-08T10:31:02.361Z,1003.55
2019-03-08T10:32:02.401Z,1003.53
2019-03-08T10:33:02.437Z,1003.63
2019-03-08T10:34:02.462Z,1003.53
2019-03-08T10:35:02.497Z,1003.47
2019-03-08T10:36:02.529Z,1003.51
2019-03-08T10:37:02.565Z,1003.54
2019-03-08T10:38:02.602Z,1003.64
2019-03-08T10:39:02.631Z,1003.56
2019-03-08T10:40:02.661Z,1003.64
2019-03-08T10:41:02.692Z,1003.68
2019-03-08T10:42:02.723Z,1003.60
2019-03-08T10:43:02.755Z,1003.60
2019-03-08T10:44:08.940Z,1003.58
2019-03-08T10:45:02.817Z,1003.69
2019-03-08T10:46:02.842Z,1003.62
2019-03-08T10:47:02.877Z,1003.57
2019-03-08T10:48:02.903Z,1003.57
2019-03-08T10:49:03.691Z,1003.60
2019-03-08T10:50:02.989Z,1003.71
2019-03-08T10:51:02.995Z,1003.81
2019-03-08T10:52:03.024Z,1004.61
2019-03-08T10:53:03.061Z,1004.71
2019-03-08T10:54:03.081Z,1004.03
2019-03-08T10:55:03.115Z,1004.75
2019-03-08T10:56:03.140Z,1004.81
2019-03-08T10:57:03.170Z,1004.80
2019-03-08T10:58:03.200Z,1003.97
2019-03-08T10:59:03.234Z,1004.15
2019-03-08T11:00:03.265Z,1004.07
2019-03-08T11:01:03.292Z,1004.76
2019-03-08T11:02:03.317Z,1003.94
2019-03-08T11:03:03.349Z,1003.99
2019-03-08T11:04:03.377Z,1003.98
2019-03-08T11:05:03.407Z,1004.09
2019-03-08T11:06:03.434Z,1004.24
2019-03-08T11:07:04.063Z,1004.91
2019-03-08T11:08:03.502Z,1005.06
2019-03-08T11:09:03.524Z,1005.08
2019-03-08T11:10:03.551Z,1004.52
2019-03-08T11:11:06.622Z,1005.15
2019-03-08T11:12:03.611Z,1005.15
2019-03-08T11:13:03.639Z,1004.34
2019-03-08T11:14:03.676Z,1004.18
2019-03-08T11:15:03.703Z,1004.10
2019-03-08T11:16:03.730Z,1004.27
2019-03-08T11:17:03.760Z,1005.30
2019-03-08T11:18:03.790Z,1005.33
2019-03-08T11:19:08.797Z,1005.42
2019-03-08T11:20:03.846Z,1005.44
2019-03-08T11:21:03.877Z,1005.52
2019-03-08T11:22:03.909Z,1004.83
2019-03-08T11:23:03.938Z,1005.14
2019-03-08T11:24:03.975Z,1005.26
2019-03-08T11:25:08.231Z,1005.47
2019-03-08T11:26:04.027Z,1005.49
2019-03-08T11:27:05.163Z,1005.35
2019-03-08T11:28:04.092Z,1005.35
2019-03-08T11:29:04.124Z,1004.59
2019-03-08T11:30:04.155Z,1004.62
2019-03-08T11:31:04.193Z,1004.57
2019-03-08T11:32:04.218Z,1004.53
2019-03-08T11:33:04.247Z,1004.51
2019-03-08T11:34:04.280Z,1004.58
2019-03-08T11:35:04.309Z,1004.55
2019-03-08T11:36:04.342Z,1004.65
2019-03-08T11:37:04.382Z,1004.62
2019-03-08T11:38:04.404Z,1004.85
2019-03-08T11:39:04.437Z,1005.33
2019-03-08T11:40:04.469Z,1004.82
2019-03-08T11:41:04.496Z,1004.85
2019-03-08T11:42:04.531Z,1004.66
2019-03-08T11:43:04.565Z,1004.60
2019-03-08T11:44:04.599Z,1004.56
2019-03-08T11:45:04.626Z,1004.48
2019-03-08T11:46:04.651Z,1004.50
2019-03-08T11:47:04.707Z,1004.46
2019-03-08T11:48:04.719Z,1004.57
2019-03-08T11:49:04.749Z,1004.50
2019-03-08T11:50:04.782Z,1004.51
2019-03-08T11:51:04.805Z,1004.44
2019-03-08T11:52:04.839Z,1004.51
2019-03-08T11:53:04.863Z,1004.62
2019-03-08T11:54:04.893Z,1004.57
2019-03-08T11:55:04.922Z,1004.62
2019-03-08T11:56:08.992Z,1004.77
2019-03-08T11:57:04.982Z,1004.85
2019-03-08T11:58:05.008Z,1004.94
2019-03-08T11:59:05.038Z,1004.88
2019-03-08T12:00:05.069Z,1004.78
2019-03-08T12:01:05.101Z,1004.80
2019-03-08T12:02:05.670Z,1004.86
2019-03-08T12:03:05.154Z,1004.98
2019-03-08T12:04:05.184Z,1004.98
2019-03-08T12:05:05.211Z,1005.00
2019-03-08T12:06:05.238Z,1004.95
2019-03-08T12:07:05.267Z,1005.10
2019-03-08T12:08:05.300Z,1005.10
2019-03-08T12:09:05.322Z,1005.14
2019-03-08T12:10:05.350Z,1005.21
2019-03-08T12:11:05.376Z,1005.28
2019-03-08T12:12:05.402Z,1005.26
2019-03-08T12:13:05.430Z,1005.34
2019-03-08T12:14:05.457Z,1005.33
2019-03-08T12:15:05.488Z,1005.36
2019-03-08T12:16:05.514Z,1005.51
2019-03-08T12:17:05.540Z,1005.49
2019-03-08T12:18:05.566Z,1005.43
2019-03-08T12:19:05.594Z,1005.38
2019-03-08T12:20:05.618Z,1005.52